Time;durP1;ratioP1;P1;durP2;ratioP2;P2;SDS_P1;SDS_P2;PMS_P1;PMS_P2;Temp;Humidity;BMP_temperature;BMP_pressure;BME280_temperature;BME280_humidity;BME280_pressure;Samples;Min_cycle;Max_cycle;Signal;HPM_P1;HPM_P2
2022/09/01 00:01:38;;;;;;;;;;;15.60;61.90;;;;;;5108524;28;20271;-81
2022/09/01 00:04:04;;;;;;;;;;;15.60;61.90;;;;;;5108456;28;19919;-80
2022/09/01 00:06:31;;;;;;;;;;;15.60;61.90;;;;;;5073671;28;20455;-80
2022/09/01 00:08:58;;;;;;;;;;;15.60;61.80;;;;;;5090195;28;20019;-80
2022/09/01 00:11:25;;;;;;;;;;;15.60;61.80;;;;;;5090203;28;19922;-80
2022/09/01 00:13:51;;;;;;;;;;;15.60;61.70;;;;;;5090059;28;19908;-80
2022/09/01 00:16:18;;;;;;;;;;;15.70;61.70;;;;;;5090286;28;20032;-80
2022/09/01 00:18:45;;;;;;;;;;;15.70;61.70;;;;;;5108631;28;20067;-80
2022/09/01 00:21:12;;;;;;;;;;;15.60;61.70;;;;;;5090209;28;19908;-80
2022/09/01 00:23:37;;;;;;;;;;;15.60;61.60;;;;;;5108353;28;20264;-80
2022/09/01 00:26:04;;;;;;;;;;;15.60;61.70;;;;;;5108513;28;19919;-80
2022/09/01 00:28:31;;;;;;;;;;;15.60;61.60;;;;;;5090094;28;20369;-80
2022/09/01 00:30:57;;;;;;;;;;;15.60;61.60;;;;;;5108144;28;19912;-80
2022/09/01 00:33:23;;;;;;;;;;;15.60;61.70;;;;;;5108165;28;19919;-80
2022/09/01 00:35:48;;;;;;;;;;;15.60;61.80;;;;;;5090080;28;20271;-80
2022/09/01 00:38:14;;;;;;;;;;;15.60;61.70;;;;;;5089944;28;19916;-80
2022/09/01 00:40:39;;;;;;;;;;;15.50;61.70;;;;;;5086577;28;19924;-80
2022/09/01 00:43:21;;;;;;;;;;;15.50;61.80;;;;;;5087949;28;19908;-80
2022/09/01 00:45:50;;;;;;;;;;;15.50;61.70;;;;;;5086513;28;20386;-80
2022/09/01 00:48:16;;;;;;;;;;;15.50;61.70;;;;;;5087785;28;19908;-80
2022/09/01 00:50:42;;;;;;;;;;;15.50;61.60;;;;;;5087939;28;20368;-80
2022/09/01 00:53:08;;;;;;;;;;;15.50;61.70;;;;;;5087698;28;19966;-80
2022/09/01 00:55:36;;;;;;;;;;;15.40;61.70;;;;;;5087799;28;20380;-80
2022/09/01 00:58:02;;;;;;;;;;;15.40;61.70;;;;;;5086385;28;19962;-80
2022/09/01 01:00:29;;;;;;;;;;;15.30;61.80;;;;;;5087892;28;19914;-80
2022/09/01 01:02:55;;;;;;;;;;;15.20;61.80;;;;;;5086299;28;19918;-80
2022/09/01 01:05:22;;;;;;;;;;;15.20;61.90;;;;;;5087641;28;20012;-80
2022/09/01 01:07:48;;;;;;;;;;;15.10;62.00;;;;;;5086462;28;19916;-80
2022/09/01 01:10:15;;;;;;;;;;;15.10;62.10;;;;;;5090351;28;20358;-80
2022/09/01 01:12:42;;;;;;;;;;;15.10;62.10;;;;;;5090008;28;19914;-80
2022/09/01 01:15:12;;;;;;;;;;;15.10;62.10;;;;;;5090292;28;20387;-80
2022/09/01 01:17:37;;;;;;;;;;;15.10;62.10;;;;;;5091380;28;19922;-80
2022/09/01 01:23:01;;;;;;;;;;;15.10;62.00;;;;;;5091450;28;19962;-80
2022/09/01 01:25:29;;;;;;;;;;;15.10;62.00;;;;;;5091056;28;19959;-80
2022/09/01 01:28:09;;;;;;;;;;;15.00;61.90;;;;;;5091150;28;20390;-80
2022/09/01 01:30:35;;;;;;;;;;;15.00;62.00;;;;;;5091128;28;19912;-80
2022/09/01 01:33:02;;;;;;;;;;;14.90;62.00;;;;;;5089763;28;19912;-80
2022/09/01 01:35:28;;;;;;;;;;;14.90;62.00;;;;;;5089624;28;20294;-80
2022/09/01 01:37:54;;;;;;;;;;;14.80;62.00;;;;;;5089618;28;20279;-80
2022/09/01 01:40:21;;;;;;;;;;;14.80;62.10;;;;;;5091712;28;19915;-79
2022/09/01 01:42:49;;;;;;;;;;;14.80;62.10;;;;;;5111232;28;19923;-80
2022/09/01 01:45:16;;;;;;;;;;;14.90;62.00;;;;;;5092877;28;19941;-80
2022/09/01 01:47:49;;;;;;;;;;;14.90;62.00;;;;;;5092828;28;19907;-80
2022/09/01 01:50:15;;;;;;;;;;;15.00;62.10;;;;;;5110924;28;19919;-80
2022/09/01 01:52:41;;;;;;;;;;;15.00;61.90;;;;;;5110947;28;19958;-80
2022/09/01 01:55:11;;;;;;;;;;;15.00;61.90;;;;;;5111019;28;19912;-80
2022/09/01 01:57:47;;;;;;;;;;;15.00;61.90;;;;;;5093115;28;19916;-80
2022/09/01 02:00:18;;;;;;;;;;;15.00;61.90;;;;;;5110924;28;19960;-81
2022/09/01 02:02:51;;;;;;;;;;;15.00;62.00;;;;;;5110771;28;19961;-80
2022/09/01 02:05:20;;;;;;;;;;;15.00;62.10;;;;;;5110654;28;19912;-80
2022/09/01 02:07:46;;;;;;;;;;;15.00;62.10;;;;;;5092413;28;20329;-80
2022/09/01 02:10:12;;;;;;;;;;;15.00;62.10;;;;;;5110801;28;20253;-80
2022/09/01 02:12:40;;;;;;;;;;;15.00;62.10;;;;;;5092213;28;19923;-80
2022/09/01 02:15:06;;;;;;;;;;;15.10;62.10;;;;;;5075749;28;19915;-80
2022/09/01 02:17:32;;;;;;;;;;;15.30;61.90;;;;;;5110572;28;19943;-80
2022/09/01 02:19:58;;;;;;;;;;;15.40;61.80;;;;;;5092130;28;19953;-80
2022/09/01 02:22:23;;;;;;;;;;;15.50;61.80;;;;;;5091365;28;20347;-80
2022/09/01 02:24:51;;;;;;;;;;;15.60;61.70;;;;;;5110338;28;19926;-80
2022/09/01 02:27:22;;;;;;;;;;;15.60;61.70;;;;;;5110364;28;20010;-80
2022/09/01 02:29:50;;;;;;;;;;;15.70;61.70;;;;;;5091948;28;19911;-80
2022/09/01 02:32:20;;;;;;;;;;;15.80;61.90;;;;;;5110203;28;20406;-80
2022/09/01 02:34:52;;;;;;;;;;;15.80;62.40;;;;;;5075627;28;19915;-80
2022/09/01 02:37:24;;;;;;;;;;;15.80;61.90;;;;;;5091863;28;19908;-80
2022/09/01 02:39:51;;;;;;;;;;;15.90;61.90;;;;;;5110019;28;20382;-80
2022/09/01 02:42:17;;;;;;;;;;;16.10;61.90;;;;;;5109745;28;19923;-80
2022/09/01 02:44:43;;;;;;;;;;;16.20;61.90;;;;;;5109960;28;20504;-80
2022/09/01 02:47:08;;;;;;;;;;;16.30;61.80;;;;;;5091627;28;20409;-81
2022/09/01 02:49:34;;;;;;;;;;;16.40;61.70;;;;;;5091700;28;19911;-81
2022/09/01 02:52:01;;;;;;;;;;;16.40;61.60;;;;;;5109815;28;19914;-81
2022/09/01 02:54:28;;;;;;;;;;;16.40;61.60;;;;;;5091537;28;19926;-80
2022/09/01 02:56:54;;;;;;;;;;;16.50;61.70;;;;;;5109773;28;19912;-80
2022/09/01 02:59:21;;;;;;;;;;;16.60;61.70;;;;;;5109756;28;19912;-80
2022/09/01 03:01:50;;;;;;;;;;;16.70;61.70;;;;;;5109787;28;19915;-81
2022/09/01 03:04:16;;;;;;;;;;;16.70;61.70;;;;;;5091380;28;19916;-81
2022/09/01 03:06:42;;;;;;;;;;;16.80;61.70;;;;;;5074630;28;20631;-80
2022/09/01 03:09:09;;;;;;;;;;;16.80;61.70;;;;;;5109595;28;19922;-80
2022/09/01 03:11:36;;;;;;;;;;;16.90;61.70;;;;;;5091029;28;20233;-80
2022/09/01 03:14:03;;;;;;;;;;;16.90;61.60;;;;;;5109273;28;19908;-80
2022/09/01 03:16:31;;;;;;;;;;;17.00;61.70;;;;;;5091039;28;19908;-80
2022/09/01 03:18:58;;;;;;;;;;;17.00;61.70;;;;;;5109410;28;19916;-80
2022/09/01 03:21:24;;;;;;;;;;;17.00;61.70;;;;;;5109335;28;20291;-80
2022/09/01 03:23:50;;;;;;;;;;;17.00;61.70;;;;;;5090738;28;19911;-80
2022/09/01 03:26:18;;;;;;;;;;;17.00;61.80;;;;;;5109270;28;19908;-80
2022/09/01 03:28:44;;;;;;;;;;;17.00;61.70;;;;;;5109127;28;20380;-81
2022/09/01 03:31:09;;;;;;;;;;;17.10;61.70;;;;;;5109098;28;19965;-80
2022/09/01 03:33:35;;;;;;;;;;;17.10;61.70;;;;;;5108806;28;19947;-80
2022/09/01 03:36:01;;;;;;;;;;;17.10;61.70;;;;;;5090860;28;19916;-81
2022/09/01 03:38:27;;;;;;;;;;;17.10;61.70;;;;;;5090781;28;19937;-81
2022/09/01 03:40:57;;;;;;;;;;;17.20;61.70;;;;;;5090497;28;19972;-80
2022/09/01 03:43:26;;;;;;;;;;;17.20;61.80;;;;;;5109179;28;19915;-80
2022/09/01 03:45:53;;;;;;;;;;;17.10;61.80;;;;;;5091148;28;19950;-80
2022/09/01 03:48:20;;;;;;;;;;;17.10;61.90;;;;;;5109274;28;19964;-80
2022/09/01 03:50:46;;;;;;;;;;;17.20;61.90;;;;;;5108756;28;20338;-81
2022/09/01 03:53:13;;;;;;;;;;;17.10;61.90;;;;;;5090305;28;19937;-80
2022/09/01 03:55:39;;;;;;;;;;;17.10;61.90;;;;;;5090340;28;19956;-80
2022/09/01 03:58:06;;;;;;;;;;;17.10;62.00;;;;;;5090219;28;20363;-80
2022/09/01 04:00:42;;;;;;;;;;;17.10;62.00;;;;;;5108647;28;20368;-81
2022/09/01 04:03:09;;;;;;;;;;;17.20;62.00;;;;;;5090349;28;19912;-80
2022/09/01 04:05:36;;;;;;;;;;;17.20;61.90;;;;;;5089735;28;19990;-80
2022/09/01 04:08:04;;;;;;;;;;;17.20;61.90;;;;;;5090209;28;20261;-81
2022/09/01 04:10:31;;;;;;;;;;;17.20;62.00;;;;;;5108450;28;20111;-81
2022/09/01 04:12:57;;;;;;;;;;;17.20;62.00;;;;;;5073379;28;19959;-80
2022/09/01 04:15:23;;;;;;;;;;;17.10;62.10;;;;;;5090254;28;19919;-81
2022/09/01 04:20:38;;;;;;;;;;;17.10;62.10;;;;;;5093273;28;19935;-81
2022/09/01 04:23:09;;;;;;;;;;;17.10;62.10;;;;;;5090134;28;20397;-81
2022/09/01 04:25:37;;;;;;;;;;;17.10;62.10;;;;;;5108484;28;20335;-81
2022/09/01 04:28:11;;;;;;;;;;;17.10;62.10;;;;;;5108491;28;19908;-80
2022/09/01 04:30:39;;;;;;;;;;;17.10;62.10;;;;;;5108340;28;19916;-81
2022/09/01 04:33:06;;;;;;;;;;;17.00;62.00;;;;;;5090158;28;19918;-80
2022/09/01 04:35:36;;;;;;;;;;;17.10;62.10;;;;;;5108214;28;19934;-80
2022/09/01 04:38:01;;;;;;;;;;;17.00;62.10;;;;;;5108576;28;20259;-81
2022/09/01 04:40:27;;;;;;;;;;;17.00;62.00;;;;;;5089852;28;19916;-81
2022/09/01 04:42:52;;;;;;;;;;;17.00;62.10;;;;;;5089933;28;19959;-80
2022/09/01 04:45:23;;;;;;;;;;;16.90;62.20;;;;;;5110546;28;19924;-80
2022/09/01 04:47:49;;;;;;;;;;;16.90;62.30;;;;;;5112227;28;19938;-80
2022/09/01 04:50:16;;;;;;;;;;;16.90;62.30;;;;;;5093873;28;19911;-81
2022/09/01 04:52:42;;;;;;;;;;;16.90;62.30;;;;;;5112204;28;20387;-80
2022/09/01 04:55:17;;;;;;;;;;;16.90;62.30;;;;;;5093756;28;20390;-80
2022/09/01 04:57:46;;;;;;;;;;;16.90;62.20;;;;;;5094718;28;19916;-80
2022/09/01 05:00:21;;;;;;;;;;;16.80;62.10;;;;;;5112021;28;19912;-80
2022/09/01 05:02:47;;;;;;;;;;;16.80;62.10;;;;;;5112080;28;19912;-80
2022/09/01 05:05:13;;;;;;;;;;;16.70;62.10;;;;;;5093453;28;19912;-80
2022/09/01 05:07:38;;;;;;;;;;;16.70;62.20;;;;;;5093424;28;19916;-79
2022/09/01 05:10:05;;;;;;;;;;;16.70;62.20;;;;;;5093476;28;19919;-80
2022/09/01 05:12:30;;;;;;;;;;;16.70;62.20;;;;;;5111548;28;19916;-81
2022/09/01 05:14:56;;;;;;;;;;;16.70;62.20;;;;;;5093251;28;19919;-80
2022/09/01 05:17:24;;;;;;;;;;;16.70;62.20;;;;;;5076418;28;19912;-80
2022/09/01 05:19:50;;;;;;;;;;;16.70;62.10;;;;;;5092997;28;19922;-80
2022/09/01 05:22:16;;;;;;;;;;;16.70;62.10;;;;;;5093172;28;19912;-80
2022/09/01 05:24:42;;;;;;;;;;;16.70;62.10;;;;;;5111302;28;20367;-80
2022/09/01 05:27:09;;;;;;;;;;;16.70;62.10;;;;;;5092912;28;19925;-80
2022/09/01 05:29:36;;;;;;;;;;;16.70;62.20;;;;;;5092923;28;19965;-81
2022/09/01 05:32:07;;;;;;;;;;;16.60;62.20;;;;;;5092809;28;20339;-80
2022/09/01 05:34:36;;;;;;;;;;;16.70;62.30;;;;;;5076722;28;19918;-80
2022/09/01 05:37:02;;;;;;;;;;;16.70;62.30;;;;;;5092888;28;19916;-80
2022/09/01 05:39:27;;;;;;;;;;;16.70;62.40;;;;;;5111719;28;20253;-80
2022/09/01 05:41:53;;;;;;;;;;;16.60;62.30;;;;;;5092739;28;19963;-81
2022/09/01 05:44:21;;;;;;;;;;;16.60;62.30;;;;;;5093125;28;19920;-79
2022/09/01 05:46:48;;;;;;;;;;;16.60;62.30;;;;;;5092815;28;19920;-81
2022/09/01 05:49:17;;;;;;;;;;;16.60;62.40;;;;;;5092674;28;19916;-82
2022/09/01 05:51:45;;;;;;;;;;;16.60;62.40;;;;;;5076200;28;19916;-82
2022/09/01 05:54:11;;;;;;;;;;;16.60;62.40;;;;;;5092372;28;19923;-81
2022/09/01 05:56:39;;;;;;;;;;;16.60;62.50;;;;;;5109507;28;19916;-80
2022/09/01 05:59:05;;;;;;;;;;;16.70;62.50;;;;;;5092451;28;20004;-81
2022/09/01 06:01:32;;;;;;;;;;;16.70;62.50;;;;;;5092490;28;19951;-81
2022/09/01 06:03:59;;;;;;;;;;;16.70;62.50;;;;;;5092807;28;19916;-80
2022/09/01 06:06:26;;;;;;;;;;;16.70;62.50;;;;;;5093178;28;19908;-81
2022/09/01 06:08:57;;;;;;;;;;;16.70;62.50;;;;;;5112146;28;19965;-81
2022/09/01 06:11:24;;;;;;;;;;;16.80;62.60;;;;;;5110773;28;19964;-80
2022/09/01 06:13:51;;;;;;;;;;;16.80;62.60;;;;;;5092389;28;19931;-80
2022/09/01 06:16:18;;;;;;;;;;;16.80;62.50;;;;;;5075491;28;19941;-80
2022/09/01 06:18:44;;;;;;;;;;;16.80;62.60;;;;;;5092415;28;19912;-80
2022/09/01 06:21:13;;;;;;;;;;;16.90;62.60;;;;;;5110514;28;19935;-81
2022/09/01 06:23:40;;;;;;;;;;;16.90;62.60;;;;;;5110021;28;20025;-80
2022/09/01 06:26:07;;;;;;;;;;;17.00;62.60;;;;;;5110491;28;20463;-80
2022/09/01 06:28:32;;;;;;;;;;;17.00;62.50;;;;;;5092144;28;20030;-80
2022/09/01 06:30:58;;;;;;;;;;;17.10;62.50;;;;;;5091826;28;20006;-80
2022/09/01 06:33:24;;;;;;;;;;;17.30;62.50;;;;;;5074942;28;19912;-81
2022/09/01 06:35:51;;;;;;;;;;;17.30;62.40;;;;;;5091869;28;20007;-80
2022/09/01 06:38:17;;;;;;;;;;;17.30;62.30;;;;;;5091877;28;20269;-80
2022/09/01 06:40:44;;;;;;;;;;;17.30;62.30;;;;;;5110283;28;19930;-81
2022/09/01 06:43:10;;;;;;;;;;;17.40;62.40;;;;;;5110007;28;19912;-81
2022/09/01 06:45:41;;;;;;;;;;;17.50;62.50;;;;;;5091711;28;19916;-78
2022/09/01 06:48:07;;;;;;;;;;;17.50;62.50;;;;;;5109638;28;19918;-81
2022/09/01 06:50:33;;;;;;;;;;;17.60;62.40;;;;;;5109745;28;20278;-80
2022/09/01 06:53:09;;;;;;;;;;;17.70;62.40;;;;;;5110313;28;19912;-80
2022/09/01 06:55:37;;;;;;;;;;;17.80;62.50;;;;;;5110361;28;19912;-81
2022/09/01 06:58:08;;;;;;;;;;;17.90;62.50;;;;;;5109313;28;19912;-80
2022/09/01 07:00:40;;;;;;;;;;;18.00;62.60;;;;;;5109567;28;19922;-81
2022/09/01 07:03:08;;;;;;;;;;;18.10;63.00;;;;;;5091286;28;19908;-80
2022/09/01 07:05:37;;;;;;;;;;;18.20;62.40;;;;;;5109101;28;19918;-82
2022/09/01 07:08:06;;;;;;;;;;;18.30;62.30;;;;;;5108764;28;19915;-81
2022/09/01 07:10:32;;;;;;;;;;;18.20;62.20;;;;;;5109207;28;19916;-81
2022/09/01 07:12:58;;;;;;;;;;;18.20;62.40;;;;;;5109110;28;20006;-81
2022/09/01 07:15:24;;;;;;;;;;;18.10;62.40;;;;;;5091234;28;19916;-81
2022/09/01 07:17:51;;;;;;;;;;;18.10;62.50;;;;;;5090452;28;19915;-81
2022/09/01 07:20:20;;;;;;;;;;;18.20;62.60;;;;;;5108608;28;19919;-74
2022/09/01 07:22:46;;;;;;;;;;;18.30;62.60;;;;;;5109064;28;19908;-81
2022/09/01 07:25:12;;;;;;;;;;;18.50;62.60;;;;;;5108705;28;19935;-81
2022/09/01 07:27:39;;;;;;;;;;;18.50;62.50;;;;;;5108739;28;20276;-81
2022/09/01 07:30:07;;;;;;;;;;;18.60;62.50;;;;;;5090665;28;19929;-81
2022/09/01 07:32:33;;;;;;;;;;;18.60;62.40;;;;;;5109638;28;19987;-81
2022/09/01 07:34:59;;;;;;;;;;;18.70;62.50;;;;;;5090422;28;20364;-81
2022/09/01 07:37:26;;;;;;;;;;;18.90;62.50;;;;;;5073279;28;19918;-81
2022/09/01 07:39:51;;;;;;;;;;;19.10;62.40;;;;;;5073886;28;20306;-81
2022/09/01 07:42:18;;;;;;;;;;;19.30;62.30;;;;;;5090388;28;20015;-80
2022/09/01 07:44:44;;;;;;;;;;;19.40;62.10;;;;;;5109202;28;19926;-81
2022/09/01 07:47:10;;;;;;;;;;;19.50;62.60;;;;;;5108647;28;19907;-82
2022/09/01 07:49:39;;;;;;;;;;;19.50;62.10;;;;;;5107907;28;20446;-82
2022/09/01 07:52:06;;;;;;;;;;;19.60;62.40;;;;;;5089829;28;19912;-82
2022/09/01 07:54:33;;;;;;;;;;;19.80;62.60;;;;;;5090165;28;19915;-82
2022/09/01 07:57:00;;;;;;;;;;;20.50;62.90;;;;;;5107974;28;19950;-82
2022/09/01 07:59:27;;;;;;;;;;;21.70;63.00;;;;;;5108846;28;19912;-82
2022/09/01 08:01:52;;;;;;;;;;;23.10;62.50;;;;;;5090937;28;19946;-80
2022/09/01 08:04:21;;;;;;;;;;;24.20;61.80;;;;;;5109048;28;19959;-80
2022/09/01 08:06:47;;;;;;;;;;;25.20;61.80;;;;;;5092378;28;19923;-80
2022/09/01 08:09:15;;;;;;;;;;;25.70;60.60;;;;;;5110267;28;19980;-77
2022/09/01 08:11:41;;;;;;;;;;;25.10;60.40;;;;;;5106850;28;19912;-78
2022/09/01 08:14:07;;;;;;;;;;;24.90;60.90;;;;;;5109494;28;20268;-80
2022/09/01 08:16:32;;;;;;;;;;;24.60;60.90;;;;;;5073603;28;19960;-79
2022/09/01 08:18:58;;;;;;;;;;;24.50;61.40;;;;;;5073602;28;19912;-79
2022/09/01 08:21:24;;;;;;;;;;;24.10;61.20;;;;;;5091506;28;19973;-79
2022/09/01 08:23:51;;;;;;;;;;;23.50;62.20;;;;;;5089975;28;19931;-80
2022/09/01 08:26:18;;;;;;;;;;;22.90;61.80;;;;;;5107719;28;19951;-80
2022/09/01 08:28:43;;;;;;;;;;;22.30;62.20;;;;;;5090885;28;19933;-80
2022/09/01 08:31:10;;;;;;;;;;;21.80;62.70;;;;;;5109347;28;19960;-80
2022/09/01 08:33:37;;;;;;;;;;;21.50;62.90;;;;;;5091228;28;19908;-79
2022/09/01 08:36:03;;;;;;;;;;;21.40;63.00;;;;;;5091522;28;19961;-80
2022/09/01 08:38:28;;;;;;;;;;;21.30;63.00;;;;;;5109107;28;19907;-77
2022/09/01 08:40:55;;;;;;;;;;;21.30;62.90;;;;;;5090586;28;20368;-79
2022/09/01 08:43:40;;;;;;;;;;;21.30;63.00;;;;;;5090440;28;20409;-79
2022/09/01 08:46:20;;;;;;;;;;;21.30;62.90;;;;;;5089862;28;20271;-78
2022/09/01 08:48:49;;;;;;;;;;;21.10;62.70;;;;;;5090237;28;19916;-79
2022/09/01 08:51:25;;;;;;;;;;;21.10;62.70;;;;;;5108174;28;19980;-79
2022/09/01 08:53:58;;;;;;;;;;;21.10;62.70;;;;;;5107762;28;19908;-80
2022/09/01 08:56:24;;;;;;;;;;;21.00;62.70;;;;;;5093872;28;19915;-80
2022/09/01 08:58:50;;;;;;;;;;;20.90;62.60;;;;;;5091563;28;19955;-80
2022/09/01 09:01:19;;;;;;;;;;;20.90;62.60;;;;;;5091198;28;19962;-80
2022/09/01 09:03:44;;;;;;;;;;;20.80;62.70;;;;;;5109687;28;20002;-77
2022/09/01 09:06:20;;;;;;;;;;;21.00;63.30;;;;;;5090430;28;20309;-83
2022/09/01 09:08:52;;;;;;;;;;;21.30;62.90;;;;;;5090253;28;19961;-75
2022/09/01 09:11:18;;;;;;;;;;;21.30;62.30;;;;;;5107601;28;19940;-76
2022/09/01 09:13:58;;;;;;;;;;;21.10;62.50;;;;;;5108568;28;20406;-75
2022/09/01 09:16:39;;;;;;;;;;;21.00;62.70;;;;;;5108240;28;19914;-75
2022/09/01 09:19:20;;;;;;;;;;;22.00;64.40;;;;;;5109624;28;19953;-76
2022/09/01 09:21:47;;;;;;;;;;;23.80;64.30;;;;;;5089971;28;19912;-78
2022/09/01 09:24:27;;;;;;;;;;;25.50;63.40;;;;;;5090751;28;20519;-78
2022/09/01 09:26:54;;;;;;;;;;;26.30;61.90;;;;;;5090728;28;19912;-77
2022/09/01 09:29:21;;;;;;;;;;;26.60;61.40;;;;;;5108647;28;20027;-77
2022/09/01 09:31:50;;;;;;;;;;;26.40;60.70;;;;;;5094022;28;19912;-76
2022/09/01 09:34:35;;;;;;;;;;;26.00;61.00;;;;;;5113334;28;20366;-77
2022/09/01 09:37:20;;;;;;;;;;;26.40;62.00;;;;;;5110881;28;20052;-79
2022/09/01 09:40:03;;;;;;;;;;;26.50;61.80;;;;;;5114411;28;20427;-77
2022/09/01 09:42:29;;;;;;;;;;;26.80;62.20;;;;;;5093449;28;20002;-77
2022/09/01 09:44:54;;;;;;;;;;;26.50;61.50;;;;;;5094048;28;20053;-76
2022/09/01 09:47:43;;;;;;;;;;;25.80;61.40;;;;;;5112618;28;20379;-77
2022/09/01 09:50:11;;;;;;;;;;;25.20;61.40;;;;;;5112493;28;19912;-77
2022/09/01 09:52:37;;;;;;;;;;;24.50;61.80;;;;;;5094765;28;19912;-77
2022/09/01 09:55:17;;;;;;;;;;;23.90;62.20;;;;;;5112788;28;19935;-76
2022/09/01 09:57:43;;;;;;;;;;;23.50;62.50;;;;;;5113824;28;19908;-77
2022/09/01 10:00:12;;;;;;;;;;;23.10;62.70;;;;;;5097237;28;19932;-79
2022/09/01 10:02:39;;;;;;;;;;;22.90;63.00;;;;;;5113609;28;19908;-76
2022/09/01 10:05:23;;;;;;;;;;;22.80;63.00;;;;;;5113655;28;19911;-78
2022/09/01 10:07:49;;;;;;;;;;;22.50;62.90;;;;;;5111645;28;20318;-77
2022/09/01 10:10:27;;;;;;;;;;;22.40;63.10;;;;;;5112163;28;19915;-77
2022/09/01 10:12:52;;;;;;;;;;;22.30;63.00;;;;;;5093273;28;19947;-77
2022/09/01 10:15:20;;;;;;;;;;;22.20;62.80;;;;;;5112542;28;19915;-78
2022/09/01 10:17:46;;;;;;;;;;;22.20;63.10;;;;;;5094038;28;19908;-76
2022/09/01 10:20:22;;;;;;;;;;;22.30;63.20;;;;;;5093184;28;20342;-73
2022/09/01 10:22:48;;;;;;;;;;;22.40;63.10;;;;;;5112251;28;19911;-76
2022/09/01 10:25:29;;;;;;;;;;;22.60;63.20;;;;;;5111438;28;19912;-78
2022/09/01 10:27:57;;;;;;;;;;;22.90;62.90;;;;;;5093802;28;19976;-78
2022/09/01 10:30:23;;;;;;;;;;;22.90;62.40;;;;;;5111639;28;19953;-80
2022/09/01 10:32:53;;;;;;;;;;;22.90;62.40;;;;;;5093372;28;20266;-77
2022/09/01 10:35:24;;;;;;;;;;;22.90;62.40;;;;;;5092847;28;20225;-76
2022/09/01 10:37:50;;;;;;;;;;;23.00;62.60;;;;;;5112177;28;19908;-77
2022/09/01 10:40:16;;;;;;;;;;;23.00;62.70;;;;;;5093034;28;19908;-78
2022/09/01 10:42:43;;;;;;;;;;;23.10;62.80;;;;;;5092892;27;19923;-78
2022/09/01 10:45:36;;;;;;;;;;;23.20;62.70;;;;;;5098513;27;20296;-80
2022/09/01 10:48:24;;;;;;;;;;;23.00;62.30;;;;;;5110664;27;19924;-73
2022/09/01 10:50:52;;;;;;;;;;;22.80;62.40;;;;;;5087555;27;19978;-77
2022/09/01 10:53:33;;;;;;;;;;;22.60;62.50;;;;;;5113434;27;19998;-76
2022/09/01 10:56:01;;;;;;;;;;;22.40;62.60;;;;;;5131885;27;19947;-78
2022/09/01 10:58:42;;;;;;;;;;;22.30;62.70;;;;;;5131943;27;20011;-79
2022/09/01 11:01:07;;;;;;;;;;;22.30;62.70;;;;;;5113204;27;20000;-78
2022/09/01 11:03:38;;;;;;;;;;;22.30;62.70;;;;;;5113927;27;19918;-77
2022/09/01 11:06:07;;;;;;;;;;;22.20;62.60;;;;;;5113307;27;19918;-78
2022/09/01 11:08:32;;;;;;;;;;;22.10;62.60;;;;;;5132279;27;19912;-82
2022/09/01 11:11:17;;;;;;;;;;;22.10;62.50;;;;;;5134118;27;19952;-83
2022/09/01 11:13:45;;;;;;;;;;;22.00;62.40;;;;;;5115096;27;19914;-82
2022/09/01 11:16:24;;;;;;;;;;;22.00;62.50;;;;;;5114923;27;19914;-77
2022/09/01 11:18:50;;;;;;;;;;;22.00;62.60;;;;;;5131388;27;19907;-78
2022/09/01 11:21:18;;;;;;;;;;;22.10;62.50;;;;;;5131206;27;19911;-79
2022/09/01 11:23:45;;;;;;;;;;;22.40;63.30;;;;;;5113200;27;19961;-78
2022/09/01 11:26:29;;;;;;;;;;;23.20;63.70;;;;;;5131734;27;19918;-80
2022/09/01 11:28:55;;;;;;;;;;;23.90;62.90;;;;;;5112735;27;19915;-79
2022/09/01 11:31:23;;;;;;;;;;;23.70;62.10;;;;;;5112892;27;20325;-80
2022/09/01 11:33:55;;;;;;;;;;;23.30;62.20;;;;;;5113035;27;19915;-77
2022/09/01 11:36:33;;;;;;;;;;;22.90;62.50;;;;;;5131252;27;20313;-78
2022/09/01 11:39:07;;;;;;;;;;;22.60;62.60;;;;;;5113610;27;19914;-77
2022/09/01 11:41:43;;;;;;;;;;;22.30;62.90;;;;;;5105761;28;19942;-81
2022/09/01 11:44:13;;;;;;;;;;;22.30;63.20;;;;;;5078587;28;20305;-76
2022/09/01 11:46:42;;;;;;;;;;;22.20;63.10;;;;;;5110745;28;19912;-78
2022/09/01 11:49:17;;;;;;;;;;;22.10;63.00;;;;;;5092642;28;19919;-76
2022/09/01 11:51:46;;;;;;;;;;;22.10;63.00;;;;;;5111257;28;19908;-78
2022/09/01 11:54:13;;;;;;;;;;;21.90;63.00;;;;;;5111203;28;19908;-77
2022/09/01 11:56:38;;;;;;;;;;;21.80;63.00;;;;;;5111471;28;20256;-78
2022/09/01 11:59:04;;;;;;;;;;;21.70;63.00;;;;;;5092599;28;19964;-80
2022/09/01 12:01:29;;;;;;;;;;;21.70;63.10;;;;;;5110573;28;19953;-79
2022/09/01 12:03:55;;;;;;;;;;;21.60;63.10;;;;;;5092383;28;20002;-80
2022/09/01 12:06:23;;;;;;;;;;;21.60;63.10;;;;;;5092339;28;19912;-79
2022/09/01 12:09:00;;;;;;;;;;;21.60;63.00;;;;;;5110699;28;20052;-77
2022/09/01 12:11:30;;;;;;;;;;;21.50;62.90;;;;;;5092398;28;19908;-77
2022/09/01 12:14:03;;;;;;;;;;;21.40;62.90;;;;;;5092452;28;20275;-79
2022/09/01 12:16:29;;;;;;;;;;;21.30;63.00;;;;;;5110076;28;20037;-79
2022/09/01 12:18:57;;;;;;;;;;;21.30;63.20;;;;;;5091658;28;20271;-78
2022/09/01 12:21:23;;;;;;;;;;;21.40;63.40;;;;;;5091465;28;20027;-78
2022/09/01 12:23:48;;;;;;;;;;;21.50;63.40;;;;;;5091470;28;19908;-78
2022/09/01 12:26:16;;;;;;;;;;;21.60;63.10;;;;;;5091771;28;19907;-79
2022/09/01 12:28:42;;;;;;;;;;;21.60;63.00;;;;;;5091394;28;19918;-78
2022/09/01 12:31:15;;;;;;;;;;;21.60;63.00;;;;;;5091346;28;19957;-77
2022/09/01 12:33:42;;;;;;;;;;;21.60;63.00;;;;;;5109869;28;19908;-81
2022/09/01 12:36:21;;;;;;;;;;;21.70;63.00;;;;;;5109698;28;19925;-79
2022/09/01 12:38:47;;;;;;;;;;;21.90;62.90;;;;;;5109561;28;19922;-78
2022/09/01 12:41:22;;;;;;;;;;;22.20;63.00;;;;;;5109741;28;20318;-79
2022/09/01 12:43:48;;;;;;;;;;;22.60;63.10;;;;;;5090036;28;19995;-79
2022/09/01 12:46:33;;;;;;;;;;;22.80;62.60;;;;;;5091358;28;20010;-79
2022/09/01 12:49:15;;;;;;;;;;;22.70;62.50;;;;;;5109634;28;19908;-79
2022/09/01 12:51:41;;;;;;;;;;;22.60;62.40;;;;;;5091223;28;19907;-79
2022/09/01 12:54:06;;;;;;;;;;;22.40;62.50;;;;;;5074278;28;19931;-79
2022/09/01 12:56:33;;;;;;;;;;;22.40;62.60;;;;;;5109067;28;20225;-79
2022/09/01 12:59:04;;;;;;;;;;;22.30;62.60;;;;;;5091203;28;19924;-79
2022/09/01 13:01:32;;;;;;;;;;;22.40;62.60;;;;;;5108867;28;19956;-79
2022/09/01 13:04:33;;;;;;;;;;;22.60;62.50;;;;;;5091059;28;19907;-79
2022/09/01 13:07:03;;;;;;;;;;;22.60;62.20;;;;;;5013531;28;19957;-79
2022/09/01 13:09:29;;;;;;;;;;;22.50;62.30;;;;;;5098765;28;19912;-79
2022/09/01 13:12:08;;;;;;;;;;;22.50;62.50;;;;;;5095012;28;20418;-79
2022/09/01 13:14:33;;;;;;;;;;;22.40;62.30;;;;;;5094460;28;19908;-79
2022/09/01 13:17:00;;;;;;;;;;;22.40;62.40;;;;;;5113128;28;19919;-79
2022/09/01 13:19:25;;;;;;;;;;;22.30;62.40;;;;;;5113383;28;19912;-79
2022/09/01 13:21:51;;;;;;;;;;;22.30;62.40;;;;;;5094700;28;20133;-79
2022/09/01 13:24:17;;;;;;;;;;;22.20;62.60;;;;;;5094768;28;19919;-78
2022/09/01 13:26:45;;;;;;;;;;;22.20;62.70;;;;;;5095200;28;20404;-78
2022/09/01 13:29:10;;;;;;;;;;;22.30;62.70;;;;;;5078598;28;19918;-78
2022/09/01 13:31:36;;;;;;;;;;;22.50;62.60;;;;;;5113299;28;20286;-79
2022/09/01 13:34:01;;;;;;;;;;;22.40;62.20;;;;;;5094930;28;19980;-78
2022/09/01 13:36:27;;;;;;;;;;;22.20;62.70;;;;;;5113046;28;19912;-78
2022/09/01 13:38:53;;;;;;;;;;;22.00;62.40;;;;;;5094212;28;20256;-77
2022/09/01 13:41:18;;;;;;;;;;;22.00;62.60;;;;;;5094179;28;19977;-78
2022/09/01 13:43:46;;;;;;;;;;;21.90;62.60;;;;;;5112332;28;19912;-78
2022/09/01 13:46:11;;;;;;;;;;;22.00;62.80;;;;;;5093003;28;19930;-79
2022/09/01 13:48:37;;;;;;;;;;;22.10;62.70;;;;;;5093888;28;20628;-78
2022/09/01 13:51:02;;;;;;;;;;;22.10;62.60;;;;;;5112217;28;19911;-79
2022/09/01 13:53:28;;;;;;;;;;;22.20;62.70;;;;;;5094390;28;19920;-79
2022/09/01 13:55:53;;;;;;;;;;;22.10;62.50;;;;;;5077332;28;20284;-76
2022/09/01 13:58:19;;;;;;;;;;;22.20;62.50;;;;;;5112737;28;19970;-79
2022/09/01 14:00:45;;;;;;;;;;;22.30;62.60;;;;;;5111108;28;19912;-78
2022/09/01 14:03:14;;;;;;;;;;;22.50;62.50;;;;;;5109999;28;19907;-77
2022/09/01 14:05:41;;;;;;;;;;;22.70;62.30;;;;;;5101813;28;20370;-80
2022/09/01 14:08:07;;;;;;;;;;;23.00;62.10;;;;;;5112580;28;19915;-79
2022/09/01 14:10:36;;;;;;;;;;;23.10;62.00;;;;;;5094090;28;19912;-77
2022/09/01 14:13:01;;;;;;;;;;;23.10;61.80;;;;;;5093885;28;19916;-77
2022/09/01 14:15:27;;;;;;;;;;;22.90;62.00;;;;;;5092937;28;19912;-78
2022/09/01 14:17:55;;;;;;;;;;;22.80;62.20;;;;;;5109742;28;19950;-76
2022/09/01 14:20:22;;;;;;;;;;;22.80;62.30;;;;;;5111187;28;19916;-78
2022/09/01 14:22:49;;;;;;;;;;;22.70;62.30;;;;;;5111902;28;19919;-78
2022/09/01 14:25:15;;;;;;;;;;;22.70;62.50;;;;;;5093158;28;20033;-78
2022/09/01 14:27:41;;;;;;;;;;;22.70;62.50;;;;;;5110934;28;19908;-79
2022/09/01 14:30:08;;;;;;;;;;;22.80;62.40;;;;;;5093861;28;19915;-80